sensor_id;sensor_type;location;lat;lon;timestamp;P1;durP1;ratioP1;P2;durP2;ratioP2
12474;SDS011;6302;42.624;23.334;2022-12-08T00:01:19;34.37;;;22.47;;
12474;SDS011;6302;42.624;23.334;2022-12-08T00:03:46;35.03;;;20.87;;
12474;SDS011;6302;42.624;23.334;2022-12-08T00:06:17;32.23;;;21.33;;
12474;SDS011;6302;42.624;23.334;2022-12-08T00:09:11;31.23;;;18.93;;
12474;SDS011;6302;42.624;23.334;2022-12-08T00:11:49;32.37;;;20.23;;
12474;SDS011;6302;42.624;23.334;2022-12-08T00:14:19;32.43;;;20.77;;
12474;SDS011;6302;42.624;23.334;2022-12-08T00:16:49;29.00;;;19.20;;
12474;SDS011;6302;42.624;23.334;2022-12-08T00:19:16;29.83;;;19.90;;
12474;SDS011;6302;42.624;23.334;2022-12-08T00:21:42;31.50;;;18.93;;
12474;SDS011;6302;42.624;23.334;2022-12-08T00:24:09;35.00;;;18.23;;
12474;SDS011;6302;42.624;23.334;2022-12-08T00:26:36;26.60;;;18.40;;
12474;SDS011;6302;42.624;23.334;2022-12-08T00:29:03;30.23;;;19.73;;
12474;SDS011;6302;42.624;23.334;2022-12-08T00:31:32;26.17;;;17.90;;
12474;SDS011;6302;42.624;23.334;2022-12-08T00:33:59;28.37;;;17.23;;
12474;SDS011;6302;42.624;23.334;2022-12-08T00:36:26;24.67;;;16.67;;
12474;SDS011;6302;42.624;23.334;2022-12-08T00:38:53;27.17;;;18.47;;
12474;SDS011;6302;42.624;23.334;2022-12-08T00:41:20;26.90;;;17.90;;
12474;SDS011;6302;42.624;23.334;2022-12-08T00:44:10;28.50;;;17.00;;
12474;SDS011;6302;42.624;23.334;2022-12-08T00:46:40;25.23;;;16.50;;
12474;SDS011;6302;42.624;23.334;2022-12-08T00:49:07;27.03;;;16.40;;
12474;SDS011;6302;42.624;23.334;2022-12-08T00:51:34;27.60;;;16.27;;
12474;SDS011;6302;42.624;23.334;2022-12-08T00:54:01;23.70;;;16.17;;
12474;SDS011;6302;42.624;23.334;2022-12-08T00:56:28;21.63;;;15.37;;
12474;SDS011;6302;42.624;23.334;2022-12-08T00:58:55;21.73;;;14.93;;
12474;SDS011;6302;42.624;23.334;2022-12-08T01:01:21;21.30;;;15.50;;
12474;SDS011;6302;42.624;23.334;2022-12-08T01:03:50;21.97;;;13.60;;
12474;SDS011;6302;42.624;23.334;2022-12-08T01:06:17;22.27;;;14.33;;
12474;SDS011;6302;42.624;23.334;2022-12-08T01:08:43;19.27;;;11.90;;
12474;SDS011;6302;42.624;23.334;2022-12-08T01:11:11;18.20;;;13.13;;
12474;SDS011;6302;42.624;23.334;2022-12-08T01:13:39;16.30;;;12.30;;
12474;SDS011;6302;42.624;23.334;2022-12-08T01:16:06;16.90;;;11.97;;
12474;SDS011;6302;42.624;23.334;2022-12-08T01:18:34;79.97;;;36.07;;
12474;SDS011;6302;42.624;23.334;2022-12-08T01:21:03;27.90;;;16.23;;
12474;SDS011;6302;42.624;23.334;2022-12-08T01:23:32;28.13;;;15.60;;
12474;SDS011;6302;42.624;23.334;2022-12-08T01:26:01;24.47;;;16.00;;
12474;SDS011;6302;42.624;23.334;2022-12-08T01:28:30;25.50;;;14.53;;
12474;SDS011;6302;42.624;23.334;2022-12-08T01:30:58;27.73;;;15.27;;
12474;SDS011;6302;42.624;23.334;2022-12-08T01:33:26;21.03;;;13.90;;
12474;SDS011;6302;42.624;23.334;2022-12-08T01:35:53;25.70;;;15.17;;
12474;SDS011;6302;42.624;23.334;2022-12-08T01:38:22;25.47;;;16.00;;
12474;SDS011;6302;42.624;23.334;2022-12-08T01:40:49;17.30;;;13.30;;
12474;SDS011;6302;42.624;23.334;2022-12-08T01:43:16;20.13;;;12.87;;
12474;SDS011;6302;42.624;23.334;2022-12-08T01:45:45;20.00;;;12.17;;
12474;SDS011;6302;42.624;23.334;2022-12-08T01:48:13;18.33;;;12.77;;
12474;SDS011;6302;42.624;23.334;2022-12-08T01:50:44;27.90;;;18.43;;
12474;SDS011;6302;42.624;23.334;2022-12-08T01:53:14;28.97;;;17.33;;
12474;SDS011;6302;42.624;23.334;2022-12-08T01:55:47;23.50;;;14.63;;
12474;SDS011;6302;42.624;23.334;2022-12-08T01:58:19;20.03;;;13.40;;
12474;SDS011;6302;42.624;23.334;2022-12-08T02:00:48;25.67;;;15.63;;
12474;SDS011;6302;42.624;23.334;2022-12-08T02:03:19;20.57;;;14.33;;
12474;SDS011;6302;42.624;23.334;2022-12-08T02:05:50;19.50;;;13.60;;
12474;SDS011;6302;42.624;23.334;2022-12-08T02:08:17;18.13;;;13.83;;
12474;SDS011;6302;42.624;23.334;2022-12-08T02:10:45;18.57;;;13.13;;
12474;SDS011;6302;42.624;23.334;2022-12-08T02:13:15;27.03;;;15.57;;
12474;SDS011;6302;42.624;23.334;2022-12-08T02:15:49;20.27;;;13.77;;
12474;SDS011;6302;42.624;23.334;2022-12-08T02:18:30;17.30;;;12.33;;
12474;SDS011;6302;42.624;23.334;2022-12-08T02:21:08;16.77;;;12.10;;
12474;SDS011;6302;42.624;23.334;2022-12-08T02:23:41;23.23;;;14.73;;
12474;SDS011;6302;42.624;23.334;2022-12-08T02:26:25;20.13;;;13.27;;
12474;SDS011;6302;42.624;23.334;2022-12-08T02:29:26;19.03;;;13.13;;
12474;SDS011;6302;42.624;23.334;2022-12-08T02:32:11;18.87;;;13.07;;
12474;SDS011;6302;42.624;23.334;2022-12-08T02:34:53;16.63;;;12.80;;
12474;SDS011;6302;42.624;23.334;2022-12-08T02:37:28;21.63;;;13.40;;
12474;SDS011;6302;42.624;23.334;2022-12-08T02:39:58;17.07;;;12.57;;
12474;SDS011;6302;42.624;23.334;2022-12-08T02:42:31;19.43;;;12.10;;
12474;SDS011;6302;42.624;23.334;2022-12-08T02:45:05;17.53;;;11.57;;
12474;SDS011;6302;42.624;23.334;2022-12-08T02:47:38;17.63;;;10.97;;
12474;SDS011;6302;42.624;23.334;2022-12-08T02:50:08;17.20;;;12.10;;
12474;SDS011;6302;42.624;23.334;2022-12-08T02:52:39;25.30;;;15.70;;
12474;SDS011;6302;42.624;23.334;2022-12-08T02:55:09;20.37;;;13.97;;
12474;SDS011;6302;42.624;23.334;2022-12-08T02:57:46;15.93;;;11.30;;
12474;SDS011;6302;42.624;23.334;2022-12-08T03:00:25;14.97;;;11.03;;
12474;SDS011;6302;42.624;23.334;2022-12-08T03:02:57;17.43;;;11.37;;
12474;SDS011;6302;42.624;23.334;2022-12-08T03:05:38;17.13;;;11.43;;
12474;SDS011;6302;42.624;23.334;2022-12-08T03:08:15;16.53;;;11.40;;
12474;SDS011;6302;42.624;23.334;2022-12-08T03:10:49;16.27;;;11.40;;
12474;SDS011;6302;42.624;23.334;2022-12-08T03:13:21;17.87;;;12.30;;
12474;SDS011;6302;42.624;23.334;2022-12-08T03:15:53;14.10;;;10.13;;
12474;SDS011;6302;42.624;23.334;2022-12-08T03:18:22;15.23;;;11.53;;
12474;SDS011;6302;42.624;23.334;2022-12-08T03:20:55;17.90;;;11.67;;
12474;SDS011;6302;42.624;23.334;2022-12-08T03:23:22;16.23;;;11.20;;
12474;SDS011;6302;42.624;23.334;2022-12-08T03:25:53;17.33;;;13.23;;
12474;SDS011;6302;42.624;23.334;2022-12-08T03:28:25;19.20;;;12.30;;
12474;SDS011;6302;42.624;23.334;2022-12-08T03:30:53;18.00;;;12.33;;
12474;SDS011;6302;42.624;23.334;2022-12-08T03:33:23;23.23;;;13.10;;
12474;SDS011;6302;42.624;23.334;2022-12-08T03:35:56;18.13;;;13.33;;
12474;SDS011;6302;42.624;23.334;2022-12-08T03:38:24;14.30;;;10.97;;
12474;SDS011;6302;42.624;23.334;2022-12-08T03:40:51;16.17;;;11.23;;
12474;SDS011;6302;42.624;23.334;2022-12-08T03:43:32;17.20;;;11.50;;
12474;SDS011;6302;42.624;23.334;2022-12-08T03:45:59;17.57;;;11.63;;
12474;SDS011;6302;42.624;23.334;2022-12-08T03:48:25;14.63;;;10.77;;
12474;SDS011;6302;42.624;23.334;2022-12-08T03:50:52;14.73;;;11.03;;
12474;SDS011;6302;42.624;23.334;2022-12-08T03:53:20;15.43;;;11.33;;
12474;SDS011;6302;42.624;23.334;2022-12-08T03:55:47;16.83;;;11.30;;
12474;SDS011;6302;42.624;23.334;2022-12-08T03:58:14;16.57;;;13.10;;
12474;SDS011;6302;42.624;23.334;2022-12-08T04:00:41;15.87;;;11.70;;
12474;SDS011;6302;42.624;23.334;2022-12-08T04:03:08;21.03;;;13.20;;
12474;SDS011;6302;42.624;23.334;2022-12-08T04:05:34;15.27;;;11.20;;
12474;SDS011;6302;42.624;23.334;2022-12-08T04:08:01;16.27;;;11.87;;
12474;SDS011;6302;42.624;23.334;2022-12-08T04:10:29;14.97;;;11.40;;
12474;SDS011;6302;42.624;23.334;2022-12-08T04:12:56;17.13;;;11.10;;
12474;SDS011;6302;42.624;23.334;2022-12-08T04:15:23;19.00;;;12.47;;
12474;SDS011;6302;42.624;23.334;2022-12-08T04:17:50;12.20;;;9.73;;
12474;SDS011;6302;42.624;23.334;2022-12-08T04:20:16;15.27;;;10.97;;
12474;SDS011;6302;42.624;23.334;2022-12-08T04:22:43;18.27;;;11.73;;
12474;SDS011;6302;42.624;23.334;2022-12-08T04:25:10;13.83;;;11.23;;
12474;SDS011;6302;42.624;23.334;2022-12-08T04:27:38;17.10;;;12.07;;
12474;SDS011;6302;42.624;23.334;2022-12-08T04:30:05;18.07;;;11.77;;
12474;SDS011;6302;42.624;23.334;2022-12-08T04:32:33;19.97;;;14.17;;
12474;SDS011;6302;42.624;23.334;2022-12-08T04:35:00;25.03;;;14.87;;
12474;SDS011;6302;42.624;23.334;2022-12-08T04:37:27;21.50;;;15.43;;
12474;SDS011;6302;42.624;23.334;2022-12-08T04:39:54;25.87;;;15.63;;
12474;SDS011;6302;42.624;23.334;2022-12-08T04:42:20;20.67;;;15.67;;
12474;SDS011;6302;42.624;23.334;2022-12-08T04:44:49;21.47;;;14.90;;
12474;SDS011;6302;42.624;23.334;2022-12-08T04:47:15;22.93;;;14.87;;
12474;SDS011;6302;42.624;23.334;2022-12-08T04:49:42;22.70;;;14.43;;
12474;SDS011;6302;42.624;23.334;2022-12-08T04:52:09;26.03;;;16.10;;
12474;SDS011;6302;42.624;23.334;2022-12-08T04:54:36;27.47;;;16.20;;
12474;SDS011;6302;42.624;23.334;2022-12-08T04:57:03;25.53;;;16.20;;
12474;SDS011;6302;42.624;23.334;2022-12-08T04:59:30;28.83;;;18.30;;
12474;SDS011;6302;42.624;23.334;2022-12-08T05:01:58;23.90;;;15.67;;
12474;SDS011;6302;42.624;23.334;2022-12-08T05:04:25;26.17;;;15.67;;
12474;SDS011;6302;42.624;23.334;2022-12-08T05:06:52;23.03;;;15.30;;
12474;SDS011;6302;42.624;23.334;2022-12-08T05:09:18;31.47;;;17.30;;
12474;SDS011;6302;42.624;23.334;2022-12-08T05:11:45;29.00;;;18.50;;
12474;SDS011;6302;42.624;23.334;2022-12-08T05:14:13;34.40;;;19.17;;
12474;SDS011;6302;42.624;23.334;2022-12-08T05:16:40;58.63;;;25.60;;
12474;SDS011;6302;42.624;23.334;2022-12-08T05:19:09;36.70;;;19.63;;
12474;SDS011;6302;42.624;23.334;2022-12-08T05:21:36;23.47;;;17.37;;
12474;SDS011;6302;42.624;23.334;2022-12-08T05:24:03;49.47;;;24.67;;
12474;SDS011;6302;42.624;23.334;2022-12-08T05:26:30;62.23;;;28.33;;
12474;SDS011;6302;42.624;23.334;2022-12-08T05:28:57;29.47;;;18.67;;
12474;SDS011;6302;42.624;23.334;2022-12-08T05:31:24;30.43;;;18.90;;
12474;SDS011;6302;42.624;23.334;2022-12-08T05:33:51;22.27;;;16.33;;
12474;SDS011;6302;42.624;23.334;2022-12-08T05:36:19;26.17;;;18.60;;
12474;SDS011;6302;42.624;23.334;2022-12-08T05:38:46;22.37;;;16.97;;
12474;SDS011;6302;42.624;23.334;2022-12-08T05:41:14;23.60;;;15.63;;
12474;SDS011;6302;42.624;23.334;2022-12-08T05:43:42;30.03;;;18.73;;
12474;SDS011;6302;42.624;23.334;2022-12-08T05:46:09;25.03;;;16.83;;
12474;SDS011;6302;42.624;23.334;2022-12-08T05:48:37;25.17;;;16.83;;
12474;SDS011;6302;42.624;23.334;2022-12-08T05:51:04;23.20;;;16.70;;
12474;SDS011;6302;42.624;23.334;2022-12-08T05:53:34;21.87;;;15.87;;
12474;SDS011;6302;42.624;23.334;2022-12-08T05:56:01;27.47;;;18.33;;
12474;SDS011;6302;42.624;23.334;2022-12-08T05:58:28;21.80;;;16.57;;
12474;SDS011;6302;42.624;23.334;2022-12-08T06:00:55;26.27;;;17.33;;
12474;SDS011;6302;42.624;23.334;2022-12-08T06:03:21;25.43;;;16.90;;
12474;SDS011;6302;42.624;23.334;2022-12-08T06:05:48;22.00;;;16.30;;
12474;SDS011;6302;42.624;23.334;2022-12-08T06:08:15;23.67;;;16.97;;
12474;SDS011;6302;42.624;23.334;2022-12-08T06:10:44;23.47;;;17.00;;
12474;SDS011;6302;42.624;23.334;2022-12-08T06:13:11;26.00;;;17.47;;
12474;SDS011;6302;42.624;23.334;2022-12-08T06:15:39;25.67;;;15.83;;
12474;SDS011;6302;42.624;23.334;2022-12-08T06:18:07;27.20;;;16.40;;
12474;SDS011;6302;42.624;23.334;2022-12-08T06:20:35;28.40;;;18.20;;
12474;SDS011;6302;42.624;23.334;2022-12-08T06:23:02;26.03;;;15.83;;
12474;SDS011;6302;42.624;23.334;2022-12-08T06:25:29;25.97;;;17.00;;
12474;SDS011;6302;42.624;23.334;2022-12-08T06:27:57;24.70;;;17.07;;
12474;SDS011;6302;42.624;23.334;2022-12-08T06:30:24;24.50;;;15.60;;
12474;SDS011;6302;42.624;23.334;2022-12-08T06:32:52;24.03;;;15.57;;
12474;SDS011;6302;42.624;23.334;2022-12-08T06:35:19;25.40;;;17.37;;
12474;SDS011;6302;42.624;23.334;2022-12-08T06:37:46;27.73;;;20.27;;
12474;SDS011;6302;42.624;23.334;2022-12-08T06:40:13;30.00;;;17.53;;
12474;SDS011;6302;42.624;23.334;2022-12-08T06:42:40;26.83;;;17.80;;
12474;SDS011;6302;42.624;23.334;2022-12-08T06:45:12;30.93;;;18.47;;
12474;SDS011;6302;42.624;23.334;2022-12-08T06:47:40;32.37;;;20.33;;
12474;SDS011;6302;42.624;23.334;2022-12-08T06:50:08;27.50;;;19.07;;
12474;SDS011;6302;42.624;23.334;2022-12-08T06:52:36;25.23;;;17.17;;
12474;SDS011;6302;42.624;23.334;2022-12-08T06:55:05;26.67;;;17.17;;
12474;SDS011;6302;42.624;23.334;2022-12-08T06:57:32;33.50;;;22.30;;
12474;SDS011;6302;42.624;23.334;2022-12-08T06:59:59;39.10;;;22.07;;
12474;SDS011;6302;42.624;23.334;2022-12-08T07:02:27;29.63;;;21.53;;
12474;SDS011;6302;42.624;23.334;2022-12-08T07:04:54;40.87;;;27.50;;
12474;SDS011;6302;42.624;23.334;2022-12-08T07:07:20;34.53;;;24.03;;
12474;SDS011;6302;42.624;23.334;2022-12-08T07:09:47;29.27;;;18.90;;
12474;SDS011;6302;42.624;23.334;2022-12-08T07:12:14;32.63;;;19.57;;
12474;SDS011;6302;42.624;23.334;2022-12-08T07:14:41;40.03;;;22.40;;
12474;SDS011;6302;42.624;23.334;2022-12-08T07:17:08;36.87;;;23.03;;
12474;SDS011;6302;42.624;23.334;2022-12-08T07:19:36;39.43;;;23.17;;
12474;SDS011;6302;42.624;23.334;2022-12-08T07:22:03;34.13;;;21.90;;
12474;SDS011;6302;42.624;23.334;2022-12-08T07:24:30;34.67;;;21.90;;
12474;SDS011;6302;42.624;23.334;2022-12-08T07:26:57;32.37;;;21.90;;
12474;SDS011;6302;42.624;23.334;2022-12-08T07:29:24;34.73;;;21.83;;
12474;SDS011;6302;42.624;23.334;2022-12-08T07:31:50;33.13;;;24.07;;
12474;SDS011;6302;42.624;23.334;2022-12-08T07:34:17;44.93;;;25.70;;
12474;SDS011;6302;42.624;23.334;2022-12-08T07:36:45;39.30;;;24.33;;
12474;SDS011;6302;42.624;23.334;2022-12-08T07:39:12;37.40;;;22.90;;
12474;SDS011;6302;42.624;23.334;2022-12-08T07:41:39;38.07;;;23.60;;
12474;SDS011;6302;42.624;23.334;2022-12-08T07:44:06;39.27;;;25.03;;
12474;SDS011;6302;42.624;23.334;2022-12-08T07:46:32;39.03;;;26.50;;
12474;SDS011;6302;42.624;23.334;2022-12-08T07:48:59;48.07;;;29.10;;
12474;SDS011;6302;42.624;23.334;2022-12-08T07:51:26;55.03;;;33.67;;
12474;SDS011;6302;42.624;23.334;2022-12-08T07:53:54;65.37;;;41.90;;
12474;SDS011;6302;42.624;23.334;2022-12-08T07:56:21;70.13;;;42.40;;
12474;SDS011;6302;42.624;23.334;2022-12-08T07:58:48;77.97;;;49.13;;
12474;SDS011;6302;42.624;23.334;2022-12-08T08:01:19;70.53;;;43.03;;
12474;SDS011;6302;42.624;23.334;2022-12-08T08:03:48;73.43;;;42.97;;
12474;SDS011;6302;42.624;23.334;2022-12-08T08:06:15;66.73;;;40.77;;
12474;SDS011;6302;42.624;23.334;2022-12-08T08:08:42;58.90;;;36.87;;
12474;SDS011;6302;42.624;23.334;2022-12-08T08:11:10;49.63;;;34.00;;
12474;SDS011;6302;42.624;23.334;2022-12-08T08:13:37;57.03;;;34.97;;
12474;SDS011;6302;42.624;23.334;2022-12-08T08:16:04;41.10;;;28.27;;
12474;SDS011;6302;42.624;23.334;2022-12-08T08:18:32;43.73;;;26.40;;
12474;SDS011;6302;42.624;23.334;2022-12-08T08:20:59;47.63;;;29.60;;
12474;SDS011;6302;42.624;23.334;2022-12-08T08:23:26;52.37;;;32.17;;
12474;SDS011;6302;42.624;23.334;2022-12-08T08:25:53;45.93;;;31.50;;
12474;SDS011;6302;42.624;23.334;2022-12-08T08:28:22;51.80;;;32.73;;
12474;SDS011;6302;42.624;23.334;2022-12-08T08:30:48;57.27;;;37.33;;
12474;SDS011;6302;42.624;23.334;2022-12-08T08:33:15;61.20;;;37.50;;
12474;SDS011;6302;42.624;23.334;2022-12-08T08:35:44;51.07;;;30.87;;
12474;SDS011;6302;42.624;23.334;2022-12-08T08:38:11;47.83;;;31.90;;
12474;SDS011;6302;42.624;23.334;2022-12-08T08:40:37;48.97;;;29.53;;
12474;SDS011;6302;42.624;23.334;2022-12-08T08:43:04;49.13;;;30.17;;
12474;SDS011;6302;42.624;23.334;2022-12-08T08:45:34;46.80;;;30.83;;
12474;SDS011;6302;42.624;23.334;2022-12-08T08:48:01;53.90;;;32.53;;
12474;SDS011;6302;42.624;23.334;2022-12-08T08:50:27;45.40;;;28.50;;
12474;SDS011;6302;42.624;23.334;2022-12-08T08:52:54;46.07;;;29.80;;
12474;SDS011;6302;42.624;23.334;2022-12-08T08:55:21;45.03;;;29.53;;
12474;SDS011;6302;42.624;23.334;2022-12-08T08:57:48;42.83;;;29.47;;
12474;SDS011;6302;42.624;23.334;2022-12-08T09:00:15;43.50;;;28.27;;
12474;SDS011;6302;42.624;23.334;2022-12-08T09:02:43;46.87;;;30.13;;
12474;SDS011;6302;42.624;23.334;2022-12-08T09:05:10;38.90;;;28.40;;
12474;SDS011;6302;42.624;23.334;2022-12-08T09:07:37;43.17;;;30.73;;
12474;SDS011;6302;42.624;23.334;2022-12-08T09:10:04;46.50;;;29.87;;
12474;SDS011;6302;42.624;23.334;2022-12-08T09:12:32;47.40;;;28.40;;
12474;SDS011;6302;42.624;23.334;2022-12-08T09:14:59;44.90;;;29.50;;
12474;SDS011;6302;42.624;23.334;2022-12-08T09:17:25;46.63;;;29.27;;
12474;SDS011;6302;42.624;23.334;2022-12-08T09:19:54;41.97;;;29.37;;
12474;SDS011;6302;42.624;23.334;2022-12-08T09:22:20;39.83;;;27.83;;
12474;SDS011;6302;42.624;23.334;2022-12-08T09:24:47;42.67;;;27.97;;
12474;SDS011;6302;42.624;23.334;2022-12-08T09:27:14;39.30;;;26.47;;
12474;SDS011;6302;42.624;23.334;2022-12-08T09:29:41;44.63;;;27.13;;
12474;SDS011;6302;42.624;23.334;2022-12-08T09:32:08;63.73;;;28.70;;
12474;SDS011;6302;42.624;23.334;2022-12-08T09:34:35;46.00;;;27.53;;
12474;SDS011;6302;42.624;23.334;2022-12-08T09:37:03;37.77;;;26.07;;
12474;SDS011;6302;42.624;23.334;2022-12-08T09:39:30;39.67;;;27.33;;
12474;SDS011;6302;42.624;23.334;2022-12-08T09:41:57;40.50;;;26.20;;
12474;SDS011;6302;42.624;23.334;2022-12-08T09:47:20;45.57;;;27.63;;
12474;SDS011;6302;42.624;23.334;2022-12-08T09:49:54;33.93;;;23.37;;
12474;SDS011;6302;42.624;23.334;2022-12-08T09:52:29;39.03;;;24.20;;
12474;SDS011;6302;42.624;23.334;2022-12-08T09:55:02;32.80;;;22.73;;
12474;SDS011;6302;42.624;23.334;2022-12-08T09:57:38;32.83;;;21.13;;
12474;SDS011;6302;42.624;23.334;2022-12-08T10:00:05;33.73;;;20.90;;
12474;SDS011;6302;42.624;23.334;2022-12-08T10:02:33;28.27;;;18.70;;
12474;SDS011;6302;42.624;23.334;2022-12-08T10:04:59;31.30;;;19.77;;
12474;SDS011;6302;42.624;23.334;2022-12-08T10:07:31;34.17;;;21.80;;
12474;SDS011;6302;42.624;23.334;2022-12-08T10:10:05;43.10;;;24.10;;
12474;SDS011;6302;42.624;23.334;2022-12-08T10:12:40;30.27;;;21.57;;
12474;SDS011;6302;42.624;23.334;2022-12-08T10:18:09;37.03;;;21.67;;
12474;SDS011;6302;42.624;23.334;2022-12-08T10:20:39;34.17;;;21.67;;
12474;SDS011;6302;42.624;23.334;2022-12-08T10:23:12;31.60;;;21.77;;
12474;SDS011;6302;42.624;23.334;2022-12-08T10:25:47;31.63;;;21.97;;
12474;SDS011;6302;42.624;23.334;2022-12-08T10:28:15;31.00;;;21.43;;
12474;SDS011;6302;42.624;23.334;2022-12-08T10:30:42;36.80;;;24.03;;
12474;SDS011;6302;42.624;23.334;2022-12-08T10:33:09;35.23;;;23.20;;
12474;SDS011;6302;42.624;23.334;2022-12-08T10:35:41;33.87;;;22.13;;
12474;SDS011;6302;42.624;23.334;2022-12-08T10:38:17;36.67;;;23.90;;
12474;SDS011;6302;42.624;23.334;2022-12-08T10:40:47;28.77;;;20.33;;
12474;SDS011;6302;42.624;23.334;2022-12-08T10:43:17;28.40;;;19.53;;
12474;SDS011;6302;42.624;23.334;2022-12-08T10:45:47;29.20;;;21.53;;
12474;SDS011;6302;42.624;23.334;2022-12-08T10:48:15;32.27;;;21.67;;
12474;SDS011;6302;42.624;23.334;2022-12-08T10:50:44;29.97;;;23.07;;
12474;SDS011;6302;42.624;23.334;2022-12-08T10:53:14;27.37;;;21.37;;
12474;SDS011;6302;42.624;23.334;2022-12-08T10:55:47;34.30;;;23.43;;
12474;SDS011;6302;42.624;23.334;2022-12-08T10:58:22;30.20;;;22.43;;
12474;SDS011;6302;42.624;23.334;2022-12-08T11:00:50;34.07;;;23.27;;
12474;SDS011;6302;42.624;23.334;2022-12-08T11:03:21;34.47;;;23.87;;
12474;SDS011;6302;42.624;23.334;2022-12-08T11:05:54;30.10;;;21.97;;
12474;SDS011;6302;42.624;23.334;2022-12-08T11:08:23;35.57;;;22.70;;
12474;SDS011;6302;42.624;23.334;2022-12-08T11:10:51;36.30;;;22.23;;
12474;SDS011;6302;42.624;23.334;2022-12-08T11:13:20;27.17;;;20.00;;
12474;SDS011;6302;42.624;23.334;2022-12-08T11:15:49;28.37;;;19.97;;
12474;SDS011;6302;42.624;23.334;2022-12-08T11:18:21;27.27;;;20.40;;
12474;SDS011;6302;42.624;23.334;2022-12-08T11:20:55;33.57;;;21.37;;
12474;SDS011;6302;42.624;23.334;2022-12-08T11:23:27;28.53;;;19.87;;
12474;SDS011;6302;42.624;23.334;2022-12-08T11:26:00;27.73;;;19.33;;
12474;SDS011;6302;42.624;23.334;2022-12-08T11:28:31;28.73;;;19.50;;
12474;SDS011;6302;42.624;23.334;2022-12-08T11:30:59;25.97;;;18.00;;
12474;SDS011;6302;42.624;23.334;2022-12-08T11:33:32;28.73;;;18.03;;
12474;SDS011;6302;42.624;23.334;2022-12-08T11:36:01;25.43;;;18.30;;
12474;SDS011;6302;42.624;23.334;2022-12-08T11:38:30;27.17;;;18.40;;
12474;SDS011;6302;42.624;23.334;2022-12-08T11:41:02;27.03;;;17.80;;
12474;SDS011;6302;42.624;23.334;2022-12-08T11:43:38;26.13;;;15.73;;
12474;SDS011;6302;42.624;23.334;2022-12-08T11:46:12;23.63;;;16.50;;
12474;SDS011;6302;42.624;23.334;2022-12-08T11:48:44;25.33;;;16.70;;
12474;SDS011;6302;42.624;23.334;2022-12-08T11:51:15;24.60;;;16.47;;
12474;SDS011;6302;42.624;23.334;2022-12-08T11:53:49;23.33;;;15.37;;
12474;SDS011;6302;42.624;23.334;2022-12-08T11:56:28;24.00;;;14.80;;
12474;SDS011;6302;42.624;23.334;2022-12-08T11:58:59;24.20;;;16.07;;
12474;SDS011;6302;42.624;23.334;2022-12-08T12:01:29;25.00;;;16.33;;
12474;SDS011;6302;42.624;23.334;2022-12-08T12:03:58;20.80;;;14.77;;
12474;SDS011;6302;42.624;23.334;2022-12-08T12:06:46;22.97;;;15.67;;
12474;SDS011;6302;42.624;23.334;2022-12-08T12:09:37;18.30;;;12.03;;
12474;SDS011;6302;42.624;23.334;2022-12-08T12:12:16;22.63;;;13.10;;
12474;SDS011;6302;42.624;23.334;2022-12-08T12:15:20;23.47;;;14.03;;
12474;SDS011;6302;42.624;23.334;2022-12-08T12:17:56;22.40;;;13.80;;
12474;SDS011;6302;42.624;23.334;2022-12-08T12:20:27;15.13;;;12.07;;
12474;SDS011;6302;42.624;23.334;2022-12-08T12:22:59;18.77;;;13.00;;
12474;SDS011;6302;42.624;23.334;2022-12-08T12:25:31;19.00;;;12.87;;
12474;SDS011;6302;42.624;23.334;2022-12-08T12:28:03;24.70;;;14.93;;
12474;SDS011;6302;42.624;23.334;2022-12-08T12:30:33;21.77;;;14.27;;
12474;SDS011;6302;42.624;23.334;2022-12-08T12:33:17;24.40;;;15.77;;
12474;SDS011;6302;42.624;23.334;2022-12-08T12:35:47;20.00;;;15.17;;
12474;SDS011;6302;42.624;23.334;2022-12-08T12:38:17;25.13;;;14.03;;
12474;SDS011;6302;42.624;23.334;2022-12-08T12:41:05;22.33;;;15.37;;
12474;SDS011;6302;42.624;23.334;2022-12-08T12:43:36;20.17;;;14.70;;
12474;SDS011;6302;42.624;23.334;2022-12-08T12:55:24;22.50;;;13.93;;
12474;SDS011;6302;42.624;23.334;2022-12-08T12:58:22;18.37;;;12.97;;
12474;SDS011;6302;42.624;23.334;2022-12-08T13:04:14;20.67;;;12.87;;
12474;SDS011;6302;42.624;23.334;2022-12-08T13:06:43;18.47;;;11.00;;
12474;SDS011;6302;42.624;23.334;2022-12-08T13:09:19;16.20;;;11.87;;
12474;SDS011;6302;42.624;23.334;2022-12-08T13:12:02;20.53;;;11.90;;
12474;SDS011;6302;42.624;23.334;2022-12-08T13:14:36;19.10;;;11.97;;
12474;SDS011;6302;42.624;23.334;2022-12-08T13:17:11;16.70;;;11.17;;
12474;SDS011;6302;42.624;23.334;2022-12-08T13:19:41;20.80;;;11.37;;
12474;SDS011;6302;42.624;23.334;2022-12-08T13:25:45;15.67;;;9.53;;
12474;SDS011;6302;42.624;23.334;2022-12-08T13:28:17;19.50;;;11.60;;
12474;SDS011;6302;42.624;23.334;2022-12-08T13:30:53;16.70;;;11.10;;
12474;SDS011;6302;42.624;23.334;2022-12-08T13:33:22;23.23;;;11.37;;
12474;SDS011;6302;42.624;23.334;2022-12-08T13:35:54;21.57;;;11.10;;
12474;SDS011;6302;42.624;23.334;2022-12-08T13:38:28;15.70;;;10.70;;
12474;SDS011;6302;42.624;23.334;2022-12-08T13:40:57;17.50;;;9.37;;
12474;SDS011;6302;42.624;23.334;2022-12-08T13:43:29;16.40;;;9.57;;
12474;SDS011;6302;42.624;23.334;2022-12-08T13:46:04;17.07;;;10.17;;
12474;SDS011;6302;42.624;23.334;2022-12-08T13:48:35;16.70;;;9.77;;
12474;SDS011;6302;42.624;23.334;2022-12-08T13:51:12;19.60;;;9.63;;
12474;SDS011;6302;42.624;23.334;2022-12-08T13:53:42;13.00;;;8.70;;
12474;SDS011;6302;42.624;23.334;2022-12-08T13:56:15;15.43;;;8.97;;
12474;SDS011;6302;42.624;23.334;2022-12-08T13:58:42;15.70;;;10.07;;
12474;SDS011;6302;42.624;23.334;2022-12-08T14:01:12;12.40;;;9.37;;
12474;SDS011;6302;42.624;23.334;2022-12-08T14:03:46;22.83;;;12.27;;
12474;SDS011;6302;42.624;23.334;2022-12-08T14:06:25;20.17;;;10.60;;
12474;SDS011;6302;42.624;23.334;2022-12-08T14:08:55;15.70;;;9.77;;
12474;SDS011;6302;42.624;23.334;2022-12-08T14:11:26;18.57;;;11.00;;
12474;SDS011;6302;42.624;23.334;2022-12-08T14:14:01;13.83;;;11.10;;
12474;SDS011;6302;42.624;23.334;2022-12-08T14:16:35;23.77;;;13.23;;
12474;SDS011;6302;42.624;23.334;2022-12-08T14:19:04;72.57;;;29.27;;
12474;SDS011;6302;42.624;23.334;2022-12-08T14:21:39;46.73;;;23.17;;
12474;SDS011;6302;42.624;23.334;2022-12-08T14:24:07;30.87;;;18.43;;
12474;SDS011;6302;42.624;23.334;2022-12-08T14:26:36;30.97;;;18.87;;
12474;SDS011;6302;42.624;23.334;2022-12-08T14:29:05;31.10;;;18.13;;
12474;SDS011;6302;42.624;23.334;2022-12-08T14:31:33;34.07;;;21.10;;
12474;SDS011;6302;42.624;23.334;2022-12-08T14:34:00;37.10;;;20.47;;
12474;SDS011;6302;42.624;23.334;2022-12-08T14:36:27;30.93;;;17.63;;
12474;SDS011;6302;42.624;23.334;2022-12-08T14:38:57;29.70;;;18.10;;
12474;SDS011;6302;42.624;23.334;2022-12-08T14:41:25;27.60;;;19.20;;
12474;SDS011;6302;42.624;23.334;2022-12-08T14:43:57;30.60;;;17.10;;
12474;SDS011;6302;42.624;23.334;2022-12-08T14:46:25;21.83;;;13.37;;
12474;SDS011;6302;42.624;23.334;2022-12-08T14:48:54;24.60;;;14.63;;
12474;SDS011;6302;42.624;23.334;2022-12-08T14:51:25;25.43;;;14.73;;
12474;SDS011;6302;42.624;23.334;2022-12-08T14:53:56;37.60;;;19.27;;
12474;SDS011;6302;42.624;23.334;2022-12-08T14:56:26;25.90;;;17.27;;
12474;SDS011;6302;42.624;23.334;2022-12-08T14:59:04;19.93;;;15.80;;